Alpine, Arizona
Current Conditions -  °F | °C
As of 1:15 PM on Monday 24 Nov 2014 (Local Time) from KJTC Reporting Station
Clear Clear  
Wind Chill: 31°   Ceiling: Unl
Heat Index: 41°   Visibility: 10mi
Dew Point:   Wind: 22mph
Humidity: 18%   Direction: 320°NW
Pressure: 30.21"   Gusts: 33mph
Location:  33.85°N, 109.14°W
Report Text: KJTC 242015Z AUTO 32019G29KT 10SM CLR 05/M18 A3021 RMK AO2
Loading
Personal Weather Stations






























Interactive Weather Map New forecast layout! Learn more

10-Day Weather Forecast

Advertisements
Track Severe Weather on mobile